createdAt,value
2023-01-13T00:00:54.475Z,1.52
2023-01-13T00:03:57.451Z,1.62
2023-01-13T00:07:00.110Z,1.50
2023-01-13T00:10:04.988Z,1.51
2023-01-13T00:13:08.066Z,1.55
2023-01-13T00:16:12.911Z,1.67
2023-01-13T00:19:15.613Z,1.53
2023-01-13T00:22:18.359Z,1.46
2023-01-13T00:25:22.625Z,1.53
2023-01-13T00:28:25.897Z,1.70
2023-01-13T00:31:29.700Z,1.61
2023-01-13T00:34:32.493Z,1.58
2023-01-13T00:37:37.546Z,1.59
2023-01-13T00:40:41.528Z,1.53
2023-01-13T00:43:44.199Z,1.53
2023-01-13T00:46:46.962Z,1.67
2023-01-13T00:49:53.267Z,1.56
2023-01-13T00:53:00.153Z,1.53
2023-01-13T00:56:06.089Z,1.37
2023-01-13T00:59:11.473Z,1.53
2023-01-13T01:02:14.266Z,1.40
2023-01-13T01:05:17.267Z,1.46
2023-01-13T01:08:20.128Z,1.42
2023-01-13T01:11:26.119Z,1.36
2023-01-13T01:14:28.843Z,1.20
2023-01-13T01:17:32.553Z,1.28
2023-01-13T01:20:37.161Z,1.40
2023-01-13T01:23:40.746Z,1.36
2023-01-13T01:26:44.987Z,1.29
2023-01-13T01:29:47.689Z,1.22
2023-01-13T01:32:50.440Z,1.17
2023-01-13T01:35:53.634Z,0.99
2023-01-13T01:38:57.830Z,0.95
2023-01-13T01:42:20.775Z,0.93
2023-01-13T01:45:24.971Z,0.89
2023-01-13T01:48:29.657Z,0.99
2023-01-13T01:51:36.853Z,0.91
2023-01-13T01:54:44.044Z,0.82
2023-01-13T01:57:53.669Z,0.78
2023-01-13T02:00:56.409Z,0.81
2023-01-13T02:04:05.203Z,0.84
2023-01-13T02:07:08.323Z,0.73
2023-01-13T02:10:13.611Z,0.72
2023-01-13T02:13:17.635Z,0.60
2023-01-13T02:16:24.639Z,0.71
2023-01-13T02:20:08.463Z,0.77
2023-01-13T02:24:13.463Z,0.79
2023-01-13T02:28:02.793Z,0.69
2023-01-13T02:31:29.006Z,0.67
2023-01-13T02:34:38.946Z,0.84
2023-01-13T02:37:43.939Z,0.74
2023-01-13T02:40:56.784Z,0.66
2023-01-13T02:44:06.711Z,0.76
2023-01-13T02:47:16.211Z,0.92
2023-01-13T02:50:23.073Z,0.85
2023-01-13T02:53:31.680Z,0.86
2023-01-13T02:56:39.629Z,0.93
2023-01-13T02:59:42.995Z,0.88
2023-01-13T03:02:47.695Z,0.99
2023-01-13T03:05:53.813Z,1.05
2023-01-13T03:09:06.726Z,1.01
2023-01-13T03:12:19.400Z,0.91
2023-01-13T03:15:29.474Z,1.06
2023-01-13T03:18:43.935Z,1.00
2023-01-13T03:21:53.782Z,0.92
2023-01-13T03:25:01.962Z,1.07
2023-01-13T03:28:08.887Z,0.95
2023-01-13T03:31:19.305Z,1.07
2023-01-13T03:34:30.268Z,1.01
2023-01-13T03:37:37.769Z,1.10
2023-01-13T03:40:44.786Z,0.96
2023-01-13T03:44:15.258Z,1.08
2023-01-13T03:47:22.427Z,1.01
2023-01-13T03:50:30.979Z,1.01
2023-01-13T03:53:39.679Z,1.09
2023-01-13T03:56:47.505Z,1.01
2023-01-13T03:59:56.168Z,1.02
2023-01-13T04:03:04.839Z,1.09
2023-01-13T04:06:17.089Z,0.94
2023-01-13T04:09:29.843Z,1.08
2023-01-13T04:12:54.295Z,1.04
2023-01-13T04:15:57.127Z,0.97
2023-01-13T04:18:59.957Z,0.74
2023-01-13T04:22:04.101Z,0.89
2023-01-13T04:25:08.006Z,0.86
2023-01-13T04:28:11.781Z,0.93
2023-01-13T04:31:15.196Z,0.95
2023-01-13T04:34:17.883Z,0.93
2023-01-13T04:37:21.876Z,0.97
2023-01-13T04:40:24.754Z,1.15
2023-01-13T04:43:27.300Z,1.29
2023-01-13T04:46:29.971Z,1.41
2023-01-13T04:49:33.252Z,1.55
2023-01-13T04:52:37.314Z,1.71
2023-01-13T04:55:39.995Z,1.88
2023-01-13T04:58:42.678Z,1.92
2023-01-13T05:01:45.403Z,2.02
2023-01-13T05:04:48.432Z,2.09
2023-01-13T05:07:52.510Z,2.16
2023-01-13T05:10:55.506Z,2.23
2023-01-13T05:14:16.409Z,2.35
2023-01-13T05:17:21.077Z,2.48
2023-01-13T05:20:24.843Z,2.53
2023-01-13T05:23:47.703Z,2.70
2023-01-13T05:26:50.381Z,2.78
2023-01-13T05:29:53.785Z,2.84
2023-01-13T05:32:56.914Z,2.95
2023-01-13T05:36:02.780Z,3.03
2023-01-13T05:39:06.783Z,3.08
2023-01-13T05:42:28.195Z,3.08
2023-01-13T05:45:31.612Z,3.10
2023-01-13T05:48:36.159Z,3.13
2023-01-13T05:51:38.761Z,3.23
2023-01-13T05:54:42.805Z,3.32
2023-01-13T05:57:45.482Z,3.32
2023-01-13T06:00:48.787Z,3.37
2023-01-13T06:03:51.476Z,3.37
2023-01-13T06:06:54.162Z,3.37
2023-01-13T06:09:58.226Z,3.43
2023-01-13T06:13:01.136Z,3.57
2023-01-13T06:16:04.179Z,3.58
2023-01-13T06:19:09.037Z,3.65
2023-01-13T06:22:15.779Z,3.68
2023-01-13T06:25:26.204Z,3.72
2023-01-13T06:28:28.917Z,3.69
2023-01-13T06:31:33.809Z,3.78
2023-01-13T06:34:38.103Z,3.86
2023-01-13T06:37:43.471Z,3.87
2023-01-13T06:41:14.091Z,3.97
2023-01-13T06:44:17.735Z,4.06
2023-01-13T06:47:22.415Z,4.10
2023-01-13T06:50:25.541Z,4.15
2023-01-13T06:53:28.239Z,4.11
2023-01-13T06:56:32.348Z,4.17
2023-01-13T06:59:35.338Z,4.33
2023-01-13T07:02:40.351Z,4.32
2023-01-13T07:05:56.245Z,4.30
2023-01-13T07:08:59.303Z,4.38
2023-01-13T07:12:03.914Z,4.43
2023-01-13T07:15:20.133Z,4.41
2023-01-13T07:18:27.637Z,4.50
2023-01-13T07:21:31.076Z,4.52
2023-01-13T07:24:34.199Z,4.61
2023-01-13T07:27:38.708Z,4.57
2023-01-13T07:30:48.452Z,4.58
2023-01-13T07:33:51.442Z,4.65
2023-01-13T07:37:05.664Z,4.71
2023-01-13T07:40:16.556Z,4.76
2023-01-13T07:43:34.912Z,4.75
2023-01-13T07:46:38.342Z,4.65
2023-01-13T07:49:41.145Z,4.67
2023-01-13T07:52:43.909Z,4.86
2023-01-13T07:55:46.737Z,4.88
2023-01-13T07:58:52.964Z,4.90
2023-01-13T08:01:56.124Z,5.00
2023-01-13T08:04:59.937Z,4.97
2023-01-13T08:08:02.598Z,4.95
2023-01-13T08:11:09.188Z,4.91
2023-01-13T08:14:15.909Z,5.02
2023-01-13T08:17:20.446Z,4.84
2023-01-13T08:20:23.671Z,4.93
2023-01-13T08:23:26.409Z,5.01
2023-01-13T08:26:29.126Z,5.17
2023-01-13T08:29:33.378Z,5.15
2023-01-13T08:32:36.176Z,5.22
2023-01-13T08:35:39.822Z,5.40
2023-01-13T08:38:42.728Z,5.25
2023-01-13T08:41:58.756Z,5.39
2023-01-13T08:45:03.171Z,5.45
2023-01-13T08:48:05.977Z,5.34
2023-01-13T08:51:09.500Z,5.42
2023-01-13T08:54:12.583Z,5.62
2023-01-13T08:57:17.107Z,5.65
2023-01-13T09:00:21.932Z,5.85
2023-01-13T09:03:24.815Z,5.87
2023-01-13T09:06:27.703Z,5.89
2023-01-13T09:09:30.687Z,5.93
2023-01-13T09:12:51.882Z,5.76
2023-01-13T09:15:56.951Z,5.74
2023-01-13T09:18:59.961Z,5.73
2023-01-13T09:22:03.809Z,5.85
2023-01-13T09:25:07.222Z,5.82
2023-01-13T09:28:10.189Z,5.87
2023-01-13T09:31:14.509Z,5.94
2023-01-13T09:34:37.823Z,5.82
2023-01-13T09:37:41.625Z,5.90
2023-01-13T09:40:49.022Z,5.87
2023-01-13T09:43:58.115Z,5.84
2023-01-13T09:47:07.109Z,5.70
2023-01-13T09:50:22.039Z,5.70
2023-01-13T09:53:28.858Z,5.73
2023-01-13T09:56:31.898Z,5.75
2023-01-13T09:59:36.522Z,5.71
2023-01-13T10:03:01.609Z,5.90
2023-01-13T10:06:13.516Z,5.86
2023-01-13T10:09:21.873Z,5.85
2023-01-13T10:13:04.827Z,5.89
2023-01-13T10:16:24.071Z,5.99
2023-01-13T10:19:33.117Z,6.04
2023-01-13T10:23:00.120Z,6.15
2023-01-13T10:26:17.922Z,6.09
2023-01-13T10:29:24.908Z,6.07
2023-01-13T10:32:27.949Z,6.18
2023-01-13T10:36:00.696Z,6.19
2023-01-13T10:39:08.721Z,6.35
2023-01-13T10:42:14.453Z,6.57
2023-01-13T10:45:25.425Z,6.64
2023-01-13T10:48:37.664Z,6.70
2023-01-13T10:51:44.980Z,6.69
2023-01-13T10:54:52.354Z,6.75
2023-01-13T10:57:55.336Z,6.72
2023-01-13T11:01:03.992Z,6.71
2023-01-13T11:04:27.036Z,6.69
2023-01-13T11:07:34.136Z,6.77
2023-01-13T11:10:45.427Z,6.80
2023-01-13T11:14:09.590Z,6.90
2023-01-13T11:17:28.006Z,6.93
2023-01-13T11:20:36.973Z,7.05
2023-01-13T11:23:46.627Z,6.76
2023-01-13T11:26:56.576Z,6.82
2023-01-13T11:30:09.955Z,6.79
2023-01-13T11:33:26.633Z,6.97
2023-01-13T11:36:37.779Z,6.96
2023-01-13T11:39:49.237Z,6.94
2023-01-13T11:42:59.955Z,7.17
2023-01-13T11:46:02.943Z,7.29
2023-01-13T11:49:05.999Z,7.53
2023-01-13T11:52:16.525Z,7.41
2023-01-13T11:55:34.266Z,7.65
2023-01-13T11:59:15.268Z,7.49
2023-01-13T12:02:30.749Z,7.47
2023-01-13T12:05:37.285Z,7.64
2023-01-13T12:08:58.463Z,7.54
2023-01-13T12:12:19.585Z,7.76
2023-01-13T12:16:04.771Z,7.93
2023-01-13T12:19:24.411Z,8.31
2023-01-13T12:22:33.766Z,8.23
2023-01-13T12:25:43.824Z,8.18
2023-01-13T12:28:53.033Z,8.45
2023-01-13T12:31:56.505Z,8.49
2023-01-13T12:35:09.066Z,8.33
2023-01-13T12:38:21.120Z,8.47
2023-01-13T12:42:00.269Z,8.27
2023-01-13T12:45:25.979Z,8.06
2023-01-13T12:49:05.244Z,7.82
2023-01-13T12:52:19.867Z,7.89
2023-01-13T12:55:23.713Z,7.84
2023-01-13T12:58:28.558Z,7.90
2023-01-13T13:01:37.669Z,7.75
2023-01-13T13:04:45.081Z,7.88
2023-01-13T13:07:52.059Z,7.80
2023-01-13T13:11:06.535Z,7.75
2023-01-13T13:14:12.392Z,7.69
2023-01-13T13:17:41.387Z,7.77
2023-01-13T13:21:04.235Z,7.68
2023-01-13T13:24:11.067Z,7.71
2023-01-13T13:27:17.452Z,7.65
2023-01-13T13:30:27.808Z,7.63
2023-01-13T13:33:50.382Z,7.77
2023-01-13T13:37:21.774Z,7.67
2023-01-13T13:40:43.558Z,7.75
2023-01-13T13:44:05.225Z,7.89
2023-01-13T13:47:08.485Z,7.80
2023-01-13T13:50:15.954Z,7.70
2023-01-13T13:53:19.840Z,7.73
2023-01-13T13:56:26.039Z,7.65
2023-01-13T13:59:34.506Z,7.64
2023-01-13T14:02:37.724Z,7.85
2023-01-13T14:05:53.804Z,7.75
2023-01-13T14:08:56.536Z,7.81
2023-01-13T14:12:01.662Z,7.92
2023-01-13T14:15:05.569Z,7.80
2023-01-13T14:18:14.086Z,7.76
2023-01-13T14:21:22.327Z,7.77
2023-01-13T14:24:25.466Z,7.49
2023-01-13T14:27:29.357Z,7.37
2023-01-13T14:30:34.010Z,7.33
2023-01-13T14:33:39.072Z,7.27
2023-01-13T14:36:43.375Z,7.27
2023-01-13T14:39:46.331Z,7.15
2023-01-13T14:42:57.178Z,6.96
2023-01-13T14:46:02.928Z,6.92
2023-01-13T14:49:06.099Z,6.89
2023-01-13T14:52:17.003Z,6.83
2023-01-13T14:55:30.207Z,6.75
2023-01-13T14:58:32.966Z,6.72
2023-01-13T15:01:36.937Z,6.78
2023-01-13T15:04:39.744Z,6.66
2023-01-13T15:07:49.169Z,6.57
2023-01-13T15:10:55.569Z,6.61
2023-01-13T15:14:01.507Z,6.64
2023-01-13T15:17:14.633Z,6.65
2023-01-13T15:20:19.322Z,6.64
2023-01-13T15:23:23.430Z,6.59
2023-01-13T15:26:27.627Z,6.73
2023-01-13T15:29:30.443Z,6.56
2023-01-13T15:32:33.096Z,6.54
2023-01-13T15:35:37.732Z,6.44
2023-01-13T15:38:41.712Z,6.48
2023-01-13T15:42:03.045Z,6.42
2023-01-13T15:45:24.823Z,6.41
2023-01-13T15:48:30.707Z,6.33
2023-01-13T15:51:33.604Z,6.45
2023-01-13T15:54:37.639Z,6.43
2023-01-13T15:57:47.963Z,6.43
2023-01-13T16:00:51.704Z,6.31
2023-01-13T16:03:55.912Z,6.19
2023-01-13T16:06:59.590Z,6.19
2023-01-13T16:10:05.059Z,6.14
2023-01-13T16:13:07.909Z,6.15
2023-01-13T16:16:19.276Z,6.23
2023-01-13T16:19:22.842Z,6.29
2023-01-13T16:22:25.994Z,6.38
2023-01-13T16:25:30.028Z,6.10
2023-01-13T16:28:35.414Z,6.31
2023-01-13T16:31:38.906Z,6.32
2023-01-13T16:34:42.038Z,6.22
2023-01-13T16:37:47.232Z,6.15
2023-01-13T16:40:52.836Z,6.18
2023-01-13T16:43:55.655Z,6.23
2023-01-13T16:46:58.231Z,6.33
2023-01-13T16:50:00.924Z,6.19
2023-01-13T16:53:04.977Z,6.05
2023-01-13T16:56:23.434Z,6.06
2023-01-13T16:59:26.236Z,6.15
2023-01-13T17:02:28.927Z,6.13
2023-01-13T17:05:31.641Z,6.13
2023-01-13T17:08:34.369Z,6.13
2023-01-13T17:11:38.425Z,6.11
2023-01-13T17:14:43.316Z,6.10
2023-01-13T17:17:48.895Z,6.03
2023-01-13T17:20:52.010Z,6.13
2023-01-13T17:23:54.966Z,6.08
2023-01-13T17:26:59.147Z,6.20
2023-01-13T17:30:01.898Z,6.15
2023-01-13T17:33:06.717Z,6.29
2023-01-13T17:36:09.935Z,6.06
2023-01-13T17:39:16.204Z,6.06
2023-01-13T17:42:20.513Z,6.04
2023-01-13T17:45:23.189Z,6.12
2023-01-13T17:48:26.035Z,5.96
2023-01-13T17:51:29.880Z,5.93
2023-01-13T17:54:32.754Z,5.96
2023-01-13T17:57:36.885Z,5.71
2023-01-13T18:00:39.584Z,5.64
2023-01-13T18:03:42.399Z,5.77
2023-01-13T18:06:45.607Z,5.82
2023-01-13T18:09:48.323Z,5.80
2023-01-13T18:12:52.358Z,5.90
2023-01-13T18:16:04.279Z,5.91
2023-01-13T18:19:25.704Z,5.98
2023-01-13T18:22:47.033Z,6.00
2023-01-13T18:26:08.222Z,5.98
2023-01-13T18:29:12.411Z,6.08
2023-01-13T18:32:16.135Z,6.01
2023-01-13T18:35:19.082Z,6.00
2023-01-13T18:38:26.320Z,5.98
2023-01-13T18:41:47.849Z,6.00
2023-01-13T18:44:53.221Z,5.89
2023-01-13T18:47:57.774Z,5.98
2023-01-13T18:51:01.013Z,6.12
2023-01-13T18:54:04.451Z,6.12
2023-01-13T18:57:07.377Z,6.05
2023-01-13T19:00:14.913Z,6.03
2023-01-13T19:03:29.552Z,6.11
2023-01-13T19:06:33.785Z,6.04
2023-01-13T19:09:36.570Z,6.10
2023-01-13T19:12:39.492Z,6.03
2023-01-13T19:15:43.848Z,6.13
2023-01-13T19:18:47.124Z,5.95
2023-01-13T19:21:50.237Z,5.99
2023-01-13T19:24:53.310Z,6.01
2023-01-13T19:27:56.194Z,6.05
2023-01-13T19:31:02.463Z,6.04
2023-01-13T19:34:05.859Z,6.06
2023-01-13T19:37:08.633Z,5.87
2023-01-13T19:40:15.779Z,5.77
2023-01-13T19:43:37.337Z,5.75
2023-01-13T19:46:41.587Z,5.68
2023-01-13T19:49:44.488Z,5.73
2023-01-13T19:52:47.791Z,5.65
2023-01-13T19:55:50.888Z,5.85
2023-01-13T19:58:54.133Z,5.67
2023-01-13T20:02:00.758Z,5.47
2023-01-13T20:05:05.868Z,5.41
2023-01-13T20:08:08.878Z,5.38
2023-01-13T20:11:21.498Z,5.32
2023-01-13T20:14:25.889Z,5.45
2023-01-13T20:17:30.873Z,5.29
2023-01-13T20:20:37.159Z,5.17
2023-01-13T20:23:40.036Z,5.23
2023-01-13T20:26:42.797Z,5.16
2023-01-13T20:29:47.837Z,5.34
2023-01-13T20:32:52.656Z,5.28
2023-01-13T20:35:58.354Z,5.40
2023-01-13T20:39:02.403Z,5.17
2023-01-13T20:42:24.132Z,5.23
2023-01-13T20:45:26.842Z,5.25
2023-01-13T20:48:30.810Z,5.29
2023-01-13T20:51:33.681Z,5.18
2023-01-13T20:54:37.125Z,5.02
2023-01-13T20:57:41.714Z,4.95
2023-01-13T21:00:44.890Z,5.05
2023-01-13T21:03:49.177Z,5.11
2023-01-13T21:06:52.371Z,5.11
2023-01-13T21:09:55.118Z,5.10
2023-01-13T21:13:16.190Z,5.06
2023-01-13T21:16:18.888Z,5.01
2023-01-13T21:19:22.984Z,5.06
2023-01-13T21:22:25.679Z,4.98
2023-01-13T21:25:28.858Z,4.85
2023-01-13T21:28:58.159Z,4.81
2023-01-13T21:32:01.027Z,4.79
2023-01-13T21:35:05.797Z,4.85
2023-01-13T21:38:10.517Z,4.93
2023-01-13T21:41:14.427Z,4.49
2023-01-13T21:44:38.890Z,4.52
2023-01-13T21:47:50.390Z,4.60
2023-01-13T21:50:54.694Z,4.67
2023-01-13T21:53:57.612Z,4.56
2023-01-13T21:57:00.350Z,4.51
2023-01-13T22:00:05.315Z,4.58
2023-01-13T22:03:09.695Z,4.93
2023-01-13T22:06:13.842Z,5.16
2023-01-13T22:09:16.888Z,5.18
2023-01-13T22:12:23.526Z,4.97
2023-01-13T22:15:28.325Z,4.92
2023-01-13T22:18:30.983Z,4.75
2023-01-13T22:21:35.684Z,4.85
2023-01-13T22:24:43.100Z,4.64
2023-01-13T22:27:48.184Z,4.65
2023-01-13T22:30:53.465Z,4.45
2023-01-13T22:33:56.124Z,4.35
2023-01-13T22:37:00.377Z,4.54
2023-01-13T22:40:03.979Z,4.61
2023-01-13T22:43:06.836Z,4.64
2023-01-13T22:46:11.657Z,4.53
2023-01-13T22:49:15.329Z,4.55
2023-01-13T22:52:20.285Z,4.40
2023-01-13T22:55:23.073Z,4.40
2023-01-13T22:58:26.317Z,4.41
2023-01-13T23:01:30.926Z,4.46
2023-01-13T23:04:33.776Z,4.44
2023-01-13T23:07:37.871Z,4.54
2023-01-13T23:10:41.812Z,4.35
2023-01-13T23:13:45.409Z,4.36
2023-01-13T23:16:48.110Z,4.42
2023-01-13T23:19:50.902Z,4.45
2023-01-13T23:22:55.075Z,4.66
2023-01-13T23:25:57.818Z,4.83
2023-01-13T23:29:02.023Z,4.77
2023-01-13T23:32:05.295Z,4.62
2023-01-13T23:35:09.041Z,4.44
2023-01-13T23:38:13.243Z,4.68
2023-01-13T23:41:18.943Z,4.70
2023-01-13T23:44:21.667Z,4.68
2023-01-13T23:47:24.351Z,4.57
2023-01-13T23:50:28.866Z,4.42
2023-01-13T23:53:35.408Z,4.43
2023-01-13T23:56:39.566Z,4.44
2023-01-13T23:59:42.432Z,4.51
